sensor_id;sensor_type;location;lat;lon;timestamp;pressure;altitude;pressure_sealevel;temperature;humidity
43364;BME280;40636;52.424;-1.948;2023-08-30T00:01:11;99211.56;;;9.40;100.00
43364;BME280;40636;52.424;-1.948;2023-08-30T00:03:38;99216.75;;;9.37;100.00
43364;BME280;40636;52.424;-1.948;2023-08-30T00:06:06;99218.06;;;9.34;100.00
43364;BME280;40636;52.424;-1.948;2023-08-30T00:08:33;99223.22;;;9.31;100.00
43364;BME280;40636;52.424;-1.948;2023-08-30T00:11:00;99220.75;;;9.29;100.00
43364;BME280;40636;52.424;-1.948;2023-08-30T00:13:32;99220.44;;;9.26;100.00
43364;BME280;40636;52.424;-1.948;2023-08-30T00:16:00;99225.94;;;9.26;100.00
43364;BME280;40636;52.424;-1.948;2023-08-30T00:18:29;99219.38;;;9.27;100.00
43364;BME280;40636;52.424;-1.948;2023-08-30T00:20:56;99224.78;;;9.22;100.00
43364;BME280;40636;52.424;-1.948;2023-08-30T00:23:24;99211.88;;;9.17;100.00
43364;BME280;40636;52.424;-1.948;2023-08-30T00:25:51;99222.31;;;9.20;100.00
43364;BME280;40636;52.424;-1.948;2023-08-30T00:28:17;99216.03;;;9.20;100.00
43364;BME280;40636;52.424;-1.948;2023-08-30T00:30:44;99214.88;;;9.15;100.00
43364;BME280;40636;52.424;-1.948;2023-08-30T00:33:11;99217.06;;;9.13;100.00
43364;BME280;40636;52.424;-1.948;2023-08-30T00:35:38;99219.00;;;9.13;100.00
43364;BME280;40636;52.424;-1.948;2023-08-30T00:38:04;99217.63;;;9.15;100.00
43364;BME280;40636;52.424;-1.948;2023-08-30T00:40:40;99228.03;;;9.13;100.00
43364;BME280;40636;52.424;-1.948;2023-08-30T00:43:07;99231.91;;;9.18;100.00
43364;BME280;40636;52.424;-1.948;2023-08-30T00:45:37;99222.00;;;9.17;100.00
43364;BME280;40636;52.424;-1.948;2023-08-30T00:48:06;99221.00;;;9.23;100.00
43364;BME280;40636;52.424;-1.948;2023-08-30T00:50:34;99217.75;;;9.31;100.00
43364;BME280;40636;52.424;-1.948;2023-08-30T00:53:02;99215.09;;;9.36;100.00
43364;BME280;40636;52.424;-1.948;2023-08-30T00:55:33;99212.41;;;9.41;100.00
43364;BME280;40636;52.424;-1.948;2023-08-30T00:58:01;99204.22;;;9.46;100.00
43364;BME280;40636;52.424;-1.948;2023-08-30T01:00:31;99200.94;;;9.49;100.00
43364;BME280;40636;52.424;-1.948;2023-08-30T01:02:58;99202.03;;;9.48;100.00
43364;BME280;40636;52.424;-1.948;2023-08-30T01:05:24;99208.09;;;9.50;100.00
43364;BME280;40636;52.424;-1.948;2023-08-30T01:07:52;99208.13;;;9.55;100.00
43364;BME280;40636;52.424;-1.948;2023-08-30T01:10:21;99199.31;;;9.53;100.00
43364;BME280;40636;52.424;-1.948;2023-08-30T01:12:53;99211.97;;;9.54;100.00
43364;BME280;40636;52.424;-1.948;2023-08-30T01:15:25;99207.03;;;9.56;100.00
43364;BME280;40636;52.424;-1.948;2023-08-30T01:17:52;99200.75;;;9.61;100.00
43364;BME280;40636;52.424;-1.948;2023-08-30T01:20:21;99205.19;;;9.67;100.00
43364;BME280;40636;52.424;-1.948;2023-08-30T01:26:13;99207.72;;;9.74;100.00
43364;BME280;40636;52.424;-1.948;2023-08-30T01:28:42;99199.50;;;9.74;100.00
43364;BME280;40636;52.424;-1.948;2023-08-30T01:31:09;99196.47;;;9.75;100.00
43364;BME280;40636;52.424;-1.948;2023-08-30T01:33:38;99185.00;;;9.78;100.00
43364;BME280;40636;52.424;-1.948;2023-08-30T01:36:05;99171.84;;;9.80;100.00
43364;BME280;40636;52.424;-1.948;2023-08-30T01:38:33;99161.72;;;9.81;100.00
43364;BME280;40636;52.424;-1.948;2023-08-30T01:41:00;99164.72;;;9.79;100.00
43364;BME280;40636;52.424;-1.948;2023-08-30T01:43:28;99160.63;;;9.82;100.00
43364;BME280;40636;52.424;-1.948;2023-08-30T01:45:57;99151.03;;;9.84;100.00
43364;BME280;40636;52.424;-1.948;2023-08-30T01:48:26;99140.84;;;9.75;100.00
43364;BME280;40636;52.424;-1.948;2023-08-30T01:50:54;99146.59;;;9.68;100.00
43364;BME280;40636;52.424;-1.948;2023-08-30T01:53:25;99142.13;;;9.62;100.00
43364;BME280;40636;52.424;-1.948;2023-08-30T01:55:52;99141.31;;;9.61;100.00
43364;BME280;40636;52.424;-1.948;2023-08-30T01:58:19;99153.91;;;9.62;100.00
43364;BME280;40636;52.424;-1.948;2023-08-30T02:00:46;99150.94;;;9.64;100.00
43364;BME280;40636;52.424;-1.948;2023-08-30T02:03:14;99145.22;;;9.71;100.00
43364;BME280;40636;52.424;-1.948;2023-08-30T02:08:15;99140.34;;;9.83;100.00
43364;BME280;40636;52.424;-1.948;2023-08-30T02:10:56;99147.25;;;9.90;100.00
43364;BME280;40636;52.424;-1.948;2023-08-30T02:13:26;99138.78;;;9.97;100.00
43364;BME280;40636;52.424;-1.948;2023-08-30T02:15:56;99138.00;;;10.02;100.00
43364;BME280;40636;52.424;-1.948;2023-08-30T02:18:26;99128.69;;;10.08;100.00
43364;BME280;40636;52.424;-1.948;2023-08-30T02:20:53;99133.66;;;10.11;100.00
43364;BME280;40636;52.424;-1.948;2023-08-30T02:23:25;99142.16;;;10.14;100.00
43364;BME280;40636;52.424;-1.948;2023-08-30T02:25:54;99145.19;;;10.13;100.00
43364;BME280;40636;52.424;-1.948;2023-08-30T02:28:21;99148.19;;;10.16;100.00
43364;BME280;40636;52.424;-1.948;2023-08-30T02:30:47;99147.66;;;10.20;100.00
43364;BME280;40636;52.424;-1.948;2023-08-30T02:33:14;99156.19;;;10.23;100.00
43364;BME280;40636;52.424;-1.948;2023-08-30T02:35:41;99139.50;;;10.25;100.00
43364;BME280;40636;52.424;-1.948;2023-08-30T02:38:07;99144.41;;;10.23;100.00
43364;BME280;40636;52.424;-1.948;2023-08-30T02:40:34;99152.63;;;10.23;100.00
43364;BME280;40636;52.424;-1.948;2023-08-30T02:43:01;99147.72;;;10.25;100.00
43364;BME280;40636;52.424;-1.948;2023-08-30T02:45:28;99150.94;;;10.22;100.00
43364;BME280;40636;52.424;-1.948;2023-08-30T02:47:55;99154.84;;;10.26;100.00
43364;BME280;40636;52.424;-1.948;2023-08-30T02:50:25;99160.31;;;10.26;100.00
43364;BME280;40636;52.424;-1.948;2023-08-30T02:52:52;99169.13;;;10.28;100.00
43364;BME280;40636;52.424;-1.948;2023-08-30T02:55:19;99160.38;;;10.36;100.00
43364;BME280;40636;52.424;-1.948;2023-08-30T02:57:46;99153.00;;;10.41;100.00
43364;BME280;40636;52.424;-1.948;2023-08-30T03:00:13;99158.50;;;10.47;100.00
43364;BME280;40636;52.424;-1.948;2023-08-30T03:02:40;99159.31;;;10.52;100.00
43364;BME280;40636;52.424;-1.948;2023-08-30T03:05:07;99165.13;;;10.61;100.00
43364;BME280;40636;52.424;-1.948;2023-08-30T03:07:34;99167.34;;;10.69;100.00
43364;BME280;40636;52.424;-1.948;2023-08-30T03:10:01;99157.75;;;10.77;100.00
43364;BME280;40636;52.424;-1.948;2023-08-30T03:12:28;99153.09;;;10.82;100.00
43364;BME280;40636;52.424;-1.948;2023-08-30T03:14:55;99148.44;;;10.88;100.00
43364;BME280;40636;52.424;-1.948;2023-08-30T03:17:22;99151.72;;;10.90;100.00
43364;BME280;40636;52.424;-1.948;2023-08-30T03:19:52;99141.59;;;10.90;100.00
43364;BME280;40636;52.424;-1.948;2023-08-30T03:22:19;99139.69;;;10.96;100.00
43364;BME280;40636;52.424;-1.948;2023-08-30T03:24:46;99137.47;;;10.98;100.00
43364;BME280;40636;52.424;-1.948;2023-08-30T03:27:13;99143.78;;;10.99;100.00
43364;BME280;40636;52.424;-1.948;2023-08-30T03:29:39;99137.47;;;10.98;100.00
43364;BME280;40636;52.424;-1.948;2023-08-30T03:32:06;99133.06;;;10.97;100.00
43364;BME280;40636;52.424;-1.948;2023-08-30T03:34:33;99131.97;;;10.98;100.00
43364;BME280;40636;52.424;-1.948;2023-08-30T03:36:59;99131.44;;;11.01;100.00
43364;BME280;40636;52.424;-1.948;2023-08-30T03:39:26;99124.84;;;11.02;100.00
43364;BME280;40636;52.424;-1.948;2023-08-30T03:41:53;99131.72;;;11.05;100.00
43364;BME280;40636;52.424;-1.948;2023-08-30T03:44:19;99138.03;;;11.05;100.00
43364;BME280;40636;52.424;-1.948;2023-08-30T03:46:46;99130.06;;;11.09;100.00
43364;BME280;40636;52.424;-1.948;2023-08-30T03:49:13;99130.31;;;11.12;100.00
43364;BME280;40636;52.424;-1.948;2023-08-30T03:51:40;99128.97;;;11.15;100.00
43364;BME280;40636;52.424;-1.948;2023-08-30T03:54:07;99128.16;;;11.14;100.00
43364;BME280;40636;52.424;-1.948;2023-08-30T03:56:37;99122.13;;;11.17;100.00
43364;BME280;40636;52.424;-1.948;2023-08-30T03:59:04;99128.97;;;11.20;100.00
43364;BME280;40636;52.424;-1.948;2023-08-30T04:01:31;99125.13;;;11.21;100.00
43364;BME280;40636;52.424;-1.948;2023-08-30T04:03:57;99123.75;;;11.24;100.00
43364;BME280;40636;52.424;-1.948;2023-08-30T04:06:24;99128.44;;;11.23;100.00
43364;BME280;40636;52.424;-1.948;2023-08-30T04:08:51;99124.03;;;11.22;100.00
43364;BME280;40636;52.424;-1.948;2023-08-30T04:11:17;99133.09;;;11.23;100.00
43364;BME280;40636;52.424;-1.948;2023-08-30T04:13:44;99133.91;;;11.23;100.00
43364;BME280;40636;52.424;-1.948;2023-08-30T04:16:11;99132.53;;;11.26;100.00
43364;BME280;40636;52.424;-1.948;2023-08-30T04:18:37;99135.56;;;11.29;100.00
43364;BME280;40636;52.424;-1.948;2023-08-30T04:21:04;99131.16;;;11.28;100.00
43364;BME280;40636;52.424;-1.948;2023-08-30T04:23:32;99137.75;;;11.32;100.00
43364;BME280;40636;52.424;-1.948;2023-08-30T04:25:59;99131.69;;;11.30;100.00
43364;BME280;40636;52.424;-1.948;2023-08-30T04:28:26;99141.34;;;11.28;100.00
43364;BME280;40636;52.424;-1.948;2023-08-30T04:30:54;99129.78;;;11.31;100.00
43364;BME280;40636;52.424;-1.948;2023-08-30T04:33:25;99135.00;;;11.32;100.00
43364;BME280;40636;52.424;-1.948;2023-08-30T04:35:52;99136.38;;;11.30;100.00
43364;BME280;40636;52.424;-1.948;2023-08-30T04:38:19;99141.88;;;11.30;100.00
43364;BME280;40636;52.424;-1.948;2023-08-30T04:40:47;99132.81;;;11.29;100.00
43364;BME280;40636;52.424;-1.948;2023-08-30T04:43:14;99133.63;;;11.30;100.00
43364;BME280;40636;52.424;-1.948;2023-08-30T04:45:41;99130.88;;;11.25;100.00
43364;BME280;40636;52.424;-1.948;2023-08-30T04:48:07;99135.84;;;11.17;100.00
43364;BME280;40636;52.424;-1.948;2023-08-30T04:50:35;99139.66;;;11.16;100.00
43364;BME280;40636;52.424;-1.948;2023-08-30T04:53:02;99139.69;;;11.11;100.00
43364;BME280;40636;52.424;-1.948;2023-08-30T04:55:28;99132.53;;;11.05;100.00
43364;BME280;40636;52.424;-1.948;2023-08-30T04:57:55;99132.53;;;10.95;100.00
43364;BME280;40636;52.424;-1.948;2023-08-30T05:00:22;99134.44;;;10.84;100.00
43364;BME280;40636;52.424;-1.948;2023-08-30T05:02:48;99136.63;;;10.77;100.00
43364;BME280;40636;52.424;-1.948;2023-08-30T05:05:15;99145.69;;;10.68;100.00
43364;BME280;40636;52.424;-1.948;2023-08-30T05:07:42;99145.38;;;10.59;100.00
43364;BME280;40636;52.424;-1.948;2023-08-30T05:10:09;99144.78;;;10.52;100.00
43364;BME280;40636;52.424;-1.948;2023-08-30T05:12:36;99147.81;;;10.45;100.00
43364;BME280;40636;52.424;-1.948;2023-08-30T05:15:03;99155.44;;;10.38;100.00
43364;BME280;40636;52.424;-1.948;2023-08-30T05:17:32;99148.84;;;10.34;100.00
43364;BME280;40636;52.424;-1.948;2023-08-30T05:19:59;99153.22;;;10.35;100.00
43364;BME280;40636;52.424;-1.948;2023-08-30T05:22:26;99145.81;;;10.35;100.00
43364;BME280;40636;52.424;-1.948;2023-08-30T05:24:53;99152.97;;;10.36;100.00
43364;BME280;40636;52.424;-1.948;2023-08-30T05:27:19;99151.06;;;10.37;100.00
43364;BME280;40636;52.424;-1.948;2023-08-30T05:29:46;99148.34;;;10.42;100.00
43364;BME280;40636;52.424;-1.948;2023-08-30T05:32:13;99146.13;;;10.44;100.00
43364;BME280;40636;52.424;-1.948;2023-08-30T05:34:39;99143.44;;;10.49;100.00
43364;BME280;40636;52.424;-1.948;2023-08-30T05:37:06;99145.06;;;10.50;100.00
43364;BME280;40636;52.424;-1.948;2023-08-30T05:39:34;99150.28;;;10.52;100.00
43364;BME280;40636;52.424;-1.948;2023-08-30T05:42:00;99148.34;;;10.52;100.00
43364;BME280;40636;52.424;-1.948;2023-08-30T05:44:27;99152.75;;;10.53;100.00
43364;BME280;40636;52.424;-1.948;2023-08-30T05:46:54;99140.41;;;10.56;100.00
43364;BME280;40636;52.424;-1.948;2023-08-30T05:49:20;99141.25;;;10.61;100.00
43364;BME280;40636;52.424;-1.948;2023-08-30T05:51:47;99147.84;;;10.71;100.00
43364;BME280;40636;52.424;-1.948;2023-08-30T05:54:14;99154.47;;;10.80;100.00
43364;BME280;40636;52.424;-1.948;2023-08-30T05:56:41;99140.50;;;10.86;100.00
43364;BME280;40636;52.424;-1.948;2023-08-30T05:59:08;99143.53;;;10.95;100.00
43364;BME280;40636;52.424;-1.948;2023-08-30T06:01:35;99139.38;;;11.03;100.00
43364;BME280;40636;52.424;-1.948;2023-08-30T06:04:02;99140.78;;;11.10;100.00
43364;BME280;40636;52.424;-1.948;2023-08-30T06:06:31;99145.16;;;11.22;100.00
43364;BME280;40636;52.424;-1.948;2023-08-30T06:08:57;99142.97;;;11.29;100.00
43364;BME280;40636;52.424;-1.948;2023-08-30T06:11:24;99143.78;;;11.39;100.00
43364;BME280;40636;52.424;-1.948;2023-08-30T06:13:51;99137.75;;;11.42;100.00
43364;BME280;40636;52.424;-1.948;2023-08-30T06:16:18;99154.50;;;11.46;100.00
43364;BME280;40636;52.424;-1.948;2023-08-30T06:18:44;99154.50;;;11.46;100.00
43364;BME280;40636;52.424;-1.948;2023-08-30T06:21:11;99153.69;;;11.51;100.00
43364;BME280;40636;52.424;-1.948;2023-08-30T06:23:38;99161.63;;;11.57;100.00
43364;BME280;40636;52.424;-1.948;2023-08-30T06:26:05;99165.47;;;11.66;100.00
43364;BME280;40636;52.424;-1.948;2023-08-30T06:28:31;99163.25;;;11.79;100.00
43364;BME280;40636;52.424;-1.948;2023-08-30T06:30:58;99163.53;;;11.92;100.00
43364;BME280;40636;52.424;-1.948;2023-08-30T06:33:25;99168.75;;;12.04;100.00
43364;BME280;40636;52.424;-1.948;2023-08-30T06:35:51;99173.41;;;12.09;100.00
43364;BME280;40636;52.424;-1.948;2023-08-30T06:38:20;99168.13;;;12.12;100.00
43364;BME280;40636;52.424;-1.948;2023-08-30T06:40:47;99164.56;;;12.22;100.00
43364;BME280;40636;52.424;-1.948;2023-08-30T06:43:14;99160.38;;;12.30;100.00
43364;BME280;40636;52.424;-1.948;2023-08-30T06:45:41;99168.91;;;12.33;100.00
43364;BME280;40636;52.424;-1.948;2023-08-30T06:48:08;99179.03;;;12.43;100.00
43364;BME280;40636;52.424;-1.948;2023-08-30T06:50:36;99183.16;;;12.46;100.00
43364;BME280;40636;52.424;-1.948;2023-08-30T06:53:03;99184.00;;;12.46;100.00
43364;BME280;40636;52.424;-1.948;2023-08-30T06:55:30;99178.50;;;12.46;100.00
43364;BME280;40636;52.424;-1.948;2023-08-30T06:57:58;99171.06;;;12.41;100.00
43364;BME280;40636;52.424;-1.948;2023-08-30T07:00:25;99177.44;;;12.37;100.00
43364;BME280;40636;52.424;-1.948;2023-08-30T07:02:52;99173.03;;;12.36;100.00
43364;BME280;40636;52.424;-1.948;2023-08-30T07:05:18;99170.81;;;12.38;100.00
43364;BME280;40636;52.424;-1.948;2023-08-30T07:07:45;99170.84;;;12.28;100.00
43364;BME280;40636;52.424;-1.948;2023-08-30T07:10:12;99163.13;;;12.30;100.00
43364;BME280;40636;52.424;-1.948;2023-08-30T07:12:38;99164.56;;;12.17;100.00
43364;BME280;40636;52.424;-1.948;2023-08-30T07:15:06;99163.78;;;12.01;100.00
43364;BME280;40636;52.424;-1.948;2023-08-30T07:17:32;99170.66;;;12.09;100.00
43364;BME280;40636;52.424;-1.948;2023-08-30T07:20:16;99174.22;;;12.09;100.00
43364;BME280;40636;52.424;-1.948;2023-08-30T07:22:43;99172.84;;;12.07;100.00
43364;BME280;40636;52.424;-1.948;2023-08-30T07:25:09;99174.25;;;11.99;100.00
43364;BME280;40636;52.424;-1.948;2023-08-30T07:27:37;99170.38;;;12.05;100.00
43364;BME280;40636;52.424;-1.948;2023-08-30T07:30:04;99175.00;;;12.20;100.00
43364;BME280;40636;52.424;-1.948;2023-08-30T07:32:31;99167.25;;;12.32;100.00
43364;BME280;40636;52.424;-1.948;2023-08-30T07:34:58;99165.56;;;12.41;100.00
43364;BME280;40636;52.424;-1.948;2023-08-30T07:37:25;99164.72;;;12.46;100.00
43364;BME280;40636;52.424;-1.948;2023-08-30T07:39:52;99164.97;;;12.55;100.00
43364;BME280;40636;52.424;-1.948;2023-08-30T07:42:20;99161.91;;;12.56;100.00
43364;BME280;40636;52.424;-1.948;2023-08-30T07:44:51;99173.50;;;12.58;100.00
43364;BME280;40636;52.424;-1.948;2023-08-30T07:47:19;99165.47;;;12.62;100.00
43364;BME280;40636;52.424;-1.948;2023-08-30T07:49:46;99179.47;;;12.70;100.00
43364;BME280;40636;52.424;-1.948;2023-08-30T07:52:12;99171.50;;;12.69;100.00
43364;BME280;40636;52.424;-1.948;2023-08-30T07:54:40;99171.16;;;12.76;100.00
43364;BME280;40636;52.424;-1.948;2023-08-30T07:57:08;99164.81;;;12.85;100.00
43364;BME280;40636;52.424;-1.948;2023-08-30T07:59:37;99163.09;;;12.94;100.00
43364;BME280;40636;52.424;-1.948;2023-08-30T08:02:05;99160.25;;;13.05;100.00
43364;BME280;40636;52.424;-1.948;2023-08-30T08:04:37;99156.91;;;13.08;100.00
43364;BME280;40636;52.424;-1.948;2023-08-30T08:07:14;99160.25;;;13.05;100.00
43364;BME280;40636;52.424;-1.948;2023-08-30T08:09:41;99150.84;;;13.11;100.00
43364;BME280;40636;52.424;-1.948;2023-08-30T08:12:08;99155.03;;;13.03;100.00
43364;BME280;40636;52.424;-1.948;2023-08-30T08:14:35;99153.84;;;13.14;100.00
43364;BME280;40636;52.424;-1.948;2023-08-30T08:17:02;99156.09;;;13.07;100.00
43364;BME280;40636;52.424;-1.948;2023-08-30T08:19:28;99145.03;;;13.17;100.00
43364;BME280;40636;52.424;-1.948;2023-08-30T08:21:55;99157.31;;;13.35;100.00
43364;BME280;40636;52.424;-1.948;2023-08-30T08:24:22;99154.72;;;13.44;100.00
43364;BME280;40636;52.424;-1.948;2023-08-30T08:26:48;99159.34;;;13.54;100.00
43364;BME280;40636;52.424;-1.948;2023-08-30T08:29:15;99157.47;;;13.49;100.00
43364;BME280;40636;52.424;-1.948;2023-08-30T08:31:42;99161.75;;;13.60;100.00
43364;BME280;40636;52.424;-1.948;2023-08-30T08:34:10;99160.53;;;13.71;100.00
43364;BME280;40636;52.424;-1.948;2023-08-30T08:36:39;99164.38;;;13.76;100.00
43364;BME280;40636;52.424;-1.948;2023-08-30T08:39:06;99171.00;;;13.75;100.00
43364;BME280;40636;52.424;-1.948;2023-08-30T08:41:42;99174.31;;;13.77;100.00
43364;BME280;40636;52.424;-1.948;2023-08-30T08:44:10;99169.31;;;13.79;100.00
43364;BME280;40636;52.424;-1.948;2023-08-30T08:46:37;99168.19;;;13.80;100.00
43364;BME280;40636;52.424;-1.948;2023-08-30T08:49:15;99167.91;;;13.81;100.00
43364;BME280;40636;52.424;-1.948;2023-08-30T08:51:45;99173.44;;;13.81;100.00
43364;BME280;40636;52.424;-1.948;2023-08-30T08:54:13;99165.88;;;13.92;100.00
43364;BME280;40636;52.424;-1.948;2023-08-30T08:56:40;99163.59;;;13.99;100.00
43364;BME280;40636;52.424;-1.948;2023-08-30T08:59:07;99167.94;;;14.05;100.00
43364;BME280;40636;52.424;-1.948;2023-08-30T09:01:35;99163.53;;;14.04;100.00
43364;BME280;40636;52.424;-1.948;2023-08-30T09:04:07;99155.91;;;14.20;100.00
43364;BME280;40636;52.424;-1.948;2023-08-30T09:06:34;99161.66;;;14.24;100.00
43364;BME280;40636;52.424;-1.948;2023-08-30T09:09:02;99157.78;;;14.25;100.00
43364;BME280;40636;52.424;-1.948;2023-08-30T09:11:33;99148.81;;;14.14;100.00
43364;BME280;40636;52.424;-1.948;2023-08-30T09:14:02;99155.19;;;14.33;100.00
43364;BME280;40636;52.424;-1.948;2023-08-30T09:16:29;99148.72;;;14.43;100.00
43364;BME280;40636;52.424;-1.948;2023-08-30T09:19:01;99153.03;;;14.54;100.00
43364;BME280;40636;52.424;-1.948;2023-08-30T09:21:31;99156.63;;;14.74;100.00
43364;BME280;40636;52.424;-1.948;2023-08-30T09:24:03;99155.34;;;14.85;100.00
43364;BME280;40636;52.424;-1.948;2023-08-30T09:26:31;99157.16;;;14.94;100.00
43364;BME280;40636;52.424;-1.948;2023-08-30T09:29:05;99157.91;;;15.00;100.00
43364;BME280;40636;52.424;-1.948;2023-08-30T09:31:39;99157.28;;;15.03;100.00
43364;BME280;40636;52.424;-1.948;2023-08-30T09:34:08;99154.16;;;15.10;100.00
43364;BME280;40636;52.424;-1.948;2023-08-30T09:36:38;99149.06;;;15.17;100.00
43364;BME280;40636;52.424;-1.948;2023-08-30T09:39:10;99152.22;;;15.10;100.00
43364;BME280;40636;52.424;-1.948;2023-08-30T09:41:44;99150.41;;;15.19;100.00
43364;BME280;40636;52.424;-1.948;2023-08-30T09:44:21;99158.84;;;15.28;100.00
43364;BME280;40636;52.424;-1.948;2023-08-30T09:46:53;99155.44;;;15.17;100.00
43364;BME280;40636;52.424;-1.948;2023-08-30T09:49:25;99167.88;;;15.34;100.00
43364;BME280;40636;52.424;-1.948;2023-08-30T09:51:53;99157.28;;;15.41;100.00
43364;BME280;40636;52.424;-1.948;2023-08-30T09:54:22;99166.50;;;15.50;100.00
43364;BME280;40636;52.424;-1.948;2023-08-30T09:56:53;99167.25;;;15.56;100.00
43364;BME280;40636;52.424;-1.948;2023-08-30T09:59:22;99157.44;;;15.63;100.00
43364;BME280;40636;52.424;-1.948;2023-08-30T10:01:49;99160.75;;;15.65;100.00
43364;BME280;40636;52.424;-1.948;2023-08-30T10:04:18;99157.78;;;15.76;100.00
43364;BME280;40636;52.424;-1.948;2023-08-30T10:06:46;99150.06;;;16.05;100.00
43364;BME280;40636;52.424;-1.948;2023-08-30T10:09:14;99151.91;;;16.23;100.00
43364;BME280;40636;52.424;-1.948;2023-08-30T10:11:45;99153.16;;;16.31;100.00
43364;BME280;40636;52.424;-1.948;2023-08-30T10:14:13;99156.91;;;15.94;100.00
43364;BME280;40636;52.424;-1.948;2023-08-30T10:16:47;99149.81;;;15.88;100.00
43364;BME280;40636;52.424;-1.948;2023-08-30T10:21:47;99153.75;;;16.14;100.00
43364;BME280;40636;52.424;-1.948;2023-08-30T10:24:18;99162.38;;;16.27;100.00
43364;BME280;40636;52.424;-1.948;2023-08-30T10:27:03;99161.94;;;16.33;100.00
43364;BME280;40636;52.424;-1.948;2023-08-30T10:29:32;99179.16;;;16.16;100.00
43364;BME280;40636;52.424;-1.948;2023-08-30T10:32:04;99183.78;;;16.07;100.00
43364;BME280;40636;52.424;-1.948;2023-08-30T10:34:32;99180.28;;;16.02;100.00
43364;BME280;40636;52.424;-1.948;2023-08-30T10:37:01;99177.81;;;15.54;100.00
43364;BME280;40636;52.424;-1.948;2023-08-30T10:39:41;99178.41;;;15.51;100.00
43364;BME280;40636;52.424;-1.948;2023-08-30T10:42:11;99180.16;;;15.28;100.00
43364;BME280;40636;52.424;-1.948;2023-08-30T10:44:58;99171.78;;;15.33;100.00
43364;BME280;40636;52.424;-1.948;2023-08-30T10:47:29;99170.22;;;15.27;100.00
43364;BME280;40636;52.424;-1.948;2023-08-30T10:50:05;99171.72;;;15.52;100.00
43364;BME280;40636;52.424;-1.948;2023-08-30T10:52:33;99164.22;;;15.71;100.00
43364;BME280;40636;52.424;-1.948;2023-08-30T10:55:10;99172.47;;;15.57;100.00
43364;BME280;40636;52.424;-1.948;2023-08-30T10:57:41;99183.03;;;15.55;100.00
43364;BME280;40636;52.424;-1.948;2023-08-30T11:02:44;99187.22;;;15.34;100.00
43364;BME280;40636;52.424;-1.948;2023-08-30T11:05:13;99181.84;;;15.42;100.00
43364;BME280;40636;52.424;-1.948;2023-08-30T11:07:41;99179.84;;;15.62;100.00
43364;BME280;40636;52.424;-1.948;2023-08-30T11:10:08;99178.63;;;15.87;100.00
43364;BME280;40636;52.424;-1.948;2023-08-30T11:12:35;99169.31;;;16.10;100.00
43364;BME280;40636;52.424;-1.948;2023-08-30T11:15:02;99170.25;;;16.19;100.00
43364;BME280;40636;52.424;-1.948;2023-08-30T11:17:29;99173.56;;;16.49;100.00
43364;BME280;40636;52.424;-1.948;2023-08-30T11:20:07;99183.59;;;16.45;100.00
43364;BME280;40636;52.424;-1.948;2023-08-30T11:22:38;99191.47;;;16.10;100.00
43364;BME280;40636;52.424;-1.948;2023-08-30T11:25:08;99189.50;;;15.97;100.00
43364;BME280;40636;52.424;-1.948;2023-08-30T11:27:36;99185.81;;;16.02;100.00
43364;BME280;40636;52.424;-1.948;2023-08-30T11:30:04;99188.38;;;15.98;100.00
43364;BME280;40636;52.424;-1.948;2023-08-30T11:32:33;99182.09;;;15.79;100.00
43364;BME280;40636;52.424;-1.948;2023-08-30T11:35:01;99179.03;;;15.94;100.00
43364;BME280;40636;52.424;-1.948;2023-08-30T11:37:29;99190.50;;;15.87;100.00
43364;BME280;40636;52.424;-1.948;2023-08-30T11:39:56;99178.09;;;15.85;100.00
43364;BME280;40636;52.424;-1.948;2023-08-30T11:42:23;99183.22;;;15.78;100.00
43364;BME280;40636;52.424;-1.948;2023-08-30T11:44:51;99187.97;;;15.91;100.00
43364;BME280;40636;52.424;-1.948;2023-08-30T11:47:24;99185.56;;;16.17;100.00
43364;BME280;40636;52.424;-1.948;2023-08-30T11:49:57;99188.41;;;16.26;100.00
43364;BME280;40636;52.424;-1.948;2023-08-30T11:52:26;99183.78;;;16.35;100.00
43364;BME280;40636;52.424;-1.948;2023-08-30T11:54:54;99179.38;;;16.47;100.00
43364;BME280;40636;52.424;-1.948;2023-08-30T11:57:22;99177.03;;;16.55;100.00
43364;BME280;40636;52.424;-1.948;2023-08-30T11:59:48;99177.13;;;16.63;100.00
43364;BME280;40636;52.424;-1.948;2023-08-30T12:02:17;99180.41;;;16.52;100.00
43364;BME280;40636;52.424;-1.948;2023-08-30T12:04:46;99176.59;;;16.61;100.00
43364;BME280;40636;52.424;-1.948;2023-08-30T12:07:23;99182.03;;;16.53;100.00
43364;BME280;40636;52.424;-1.948;2023-08-30T12:09:51;99168.94;;;16.44;100.00
43364;BME280;40636;52.424;-1.948;2023-08-30T12:12:18;99170.69;;;16.54;100.00
43364;BME280;40636;52.424;-1.948;2023-08-30T12:14:45;99173.72;;;16.53;100.00
43364;BME280;40636;52.424;-1.948;2023-08-30T12:17:11;99167.78;;;16.59;100.00
43364;BME280;40636;52.424;-1.948;2023-08-30T12:19:39;99161.13;;;16.60;100.00
43364;BME280;40636;52.424;-1.948;2023-08-30T12:22:08;99161.94;;;16.61;100.00
43364;BME280;40636;52.424;-1.948;2023-08-30T12:24:45;99168.81;;;16.77;100.00
43364;BME280;40636;52.424;-1.948;2023-08-30T12:27:13;99159.78;;;16.85;100.00
43364;BME280;40636;52.424;-1.948;2023-08-30T12:29:40;99154.69;;;17.01;100.00
43364;BME280;40636;52.424;-1.948;2023-08-30T12:32:07;99147.69;;;17.17;100.00
43364;BME280;40636;52.424;-1.948;2023-08-30T12:34:34;99146.41;;;17.23;100.00
43364;BME280;40636;52.424;-1.948;2023-08-30T12:37:02;99160.28;;;17.23;100.00
43364;BME280;40636;52.424;-1.948;2023-08-30T12:39:31;99146.41;;;17.23;100.00
43364;BME280;40636;52.424;-1.948;2023-08-30T12:41:58;99150.88;;;17.33;100.00
43364;BME280;40636;52.424;-1.948;2023-08-30T12:44:25;99136.56;;;17.62;100.00
43364;BME280;40636;52.424;-1.948;2023-08-30T12:46:58;99147.16;;;17.83;100.00
43364;BME280;40636;52.424;-1.948;2023-08-30T12:49:25;99150.06;;;17.78;100.00
43364;BME280;40636;52.424;-1.948;2023-08-30T12:51:51;99146.28;;;17.73;100.00
43364;BME280;40636;52.424;-1.948;2023-08-30T12:54:18;99148.28;;;17.59;100.00
43364;BME280;40636;52.424;-1.948;2023-08-30T12:56:45;99164.41;;;17.35;100.00